Nearby METAR Reports

 

EGQL - Leuchars Raf, United Kingdom
Distance from station: SW 17km
Updated: 26/02/2021 15:50
Partly cloudy
Partly cloudy
 Wind from WSW
Wind: WSW 18 mph , 30 km/h
Temperature: 11°C
Dew Point: 5°C
Humidity: 67%
Barometer: 1032 hPa
Clouds: Partly cloudy
Visibility: 6 miles , 10 km
Cloud details: Partly cloudy 762 m
2021/02/26 14:50 EGQL 261450Z 25016KT 9999 SCT025 11/05 Q1032 BLU
EGPN - Dundee/Riverside, United Kingdom
Distance from station: WSW 20km
Updated: 26/02/2021 15:50
Few Clouds
Few Clouds
 Wind from W
Wind: W 15 mph , 24 km/h
Temperature: 9°C
Wind Chill: 6°C
Dew Point: 5°C
Humidity: 76%
Barometer: 1032 hPa
Clouds: Few Clouds
Visibility: 6 miles , 10 km
Cloud details: Few Clouds 914 m
2021/02/26 14:50 EGPN 261450Z 27013KT 9999 FEW030 09/05 Q1032
 
EGPH - Edinburgh Airpor, United Kingdom
Distance from station: SSW 74km
Updated: 26/02/2021 15:50
Partly cloudy
Partly cloudy
 Wind from WSW
Wind: WSW 13 mph , 20 km/h
Temperature: 11°C
Dew Point: 5°C
Humidity: 67%
Barometer: 1033 hPa
Clouds: Partly cloudy
Visibility: 6 miles , 10 km
Cloud details: Partly cloudy 914 m
2021/02/26 14:50 EGPH 261450Z 25011KT 9999 SCT030 11/05 Q1033
EGPD - Aberdeen/Dyce, United Kingdom
Distance from station: NNE 82km
Updated: 26/02/2021 15:50
Clear
Clear
 Wind from S
Wind: S 5 mph , 7 km/h
Temperature: 13°C
Dew Point: 4°C
Humidity: 55%
Barometer: 1030 hPa
Clouds: Clear
Visibility: 6 miles , 10 km
2021/02/26 14:50 EGPD 261450Z AUTO 18004KT 130V260 9999 NCD 13/04 Q1030